sensor_id;sensor_type;location;lat;lon;timestamp;P1;durP1;ratioP1;P2;durP2;ratioP2
23565;SDS011;22140;48.988;8.544;2023-03-01T00:00:49;23.47;;;8.93;;
23565;SDS011;22140;48.988;8.544;2023-03-01T00:05:51;16.67;;;7.00;;
23565;SDS011;22140;48.988;8.544;2023-03-01T00:16:13;18.92;;;7.30;;
23565;SDS011;22140;48.988;8.544;2023-03-01T00:21:15;16.10;;;6.72;;
23565;SDS011;22140;48.988;8.544;2023-03-01T00:26:16;21.60;;;7.03;;
23565;SDS011;22140;48.988;8.544;2023-03-01T00:31:19;19.08;;;7.22;;
23565;SDS011;22140;48.988;8.544;2023-03-01T00:36:21;24.17;;;8.10;;
23565;SDS011;22140;48.988;8.544;2023-03-01T00:41:22;16.55;;;6.78;;
23565;SDS011;22140;48.988;8.544;2023-03-01T00:46:25;16.90;;;6.82;;
23565;SDS011;22140;48.988;8.544;2023-03-01T00:51:27;17.27;;;7.20;;
23565;SDS011;22140;48.988;8.544;2023-03-01T00:56:29;20.05;;;7.65;;
23565;SDS011;22140;48.988;8.544;2023-03-01T01:01:31;17.00;;;7.13;;
23565;SDS011;22140;48.988;8.544;2023-03-01T01:06:39;23.00;;;7.90;;
23565;SDS011;22140;48.988;8.544;2023-03-01T01:11:47;19.88;;;7.32;;
23565;SDS011;22140;48.988;8.544;2023-03-01T01:16:49;20.93;;;7.57;;
23565;SDS011;22140;48.988;8.544;2023-03-01T01:21:50;18.58;;;7.68;;
23565;SDS011;22140;48.988;8.544;2023-03-01T01:26:52;19.00;;;7.20;;
23565;SDS011;22140;48.988;8.544;2023-03-01T01:31:53;16.65;;;6.75;;
23565;SDS011;22140;48.988;8.544;2023-03-01T01:36:54;17.77;;;7.18;;
23565;SDS011;22140;48.988;8.544;2023-03-01T01:41:56;18.57;;;7.33;;
23565;SDS011;22140;48.988;8.544;2023-03-01T01:47:00;22.60;;;7.38;;
23565;SDS011;22140;48.988;8.544;2023-03-01T01:52:09;20.07;;;7.43;;
23565;SDS011;22140;48.988;8.544;2023-03-01T01:57:12;22.30;;;7.85;;
23565;SDS011;22140;48.988;8.544;2023-03-01T02:02:15;19.10;;;7.60;;
23565;SDS011;22140;48.988;8.544;2023-03-01T02:07:18;19.90;;;7.27;;
23565;SDS011;22140;48.988;8.544;2023-03-01T02:12:21;22.02;;;8.63;;
23565;SDS011;22140;48.988;8.544;2023-03-01T02:17:23;24.57;;;7.43;;
23565;SDS011;22140;48.988;8.544;2023-03-01T02:22:27;19.50;;;7.57;;
23565;SDS011;22140;48.988;8.544;2023-03-01T02:32:49;19.17;;;7.43;;
23565;SDS011;22140;48.988;8.544;2023-03-01T02:37:50;21.77;;;7.18;;
23565;SDS011;22140;48.988;8.544;2023-03-01T02:42:53;21.40;;;7.07;;
23565;SDS011;22140;48.988;8.544;2023-03-01T02:47:56;19.90;;;8.02;;
23565;SDS011;22140;48.988;8.544;2023-03-01T02:58:02;19.77;;;8.10;;
23565;SDS011;22140;48.988;8.544;2023-03-01T03:03:04;19.73;;;8.30;;
23565;SDS011;22140;48.988;8.544;2023-03-01T03:08:05;22.37;;;8.43;;
23565;SDS011;22140;48.988;8.544;2023-03-01T03:13:09;23.05;;;9.30;;
23565;SDS011;22140;48.988;8.544;2023-03-01T03:18:13;24.00;;;9.45;;
23565;SDS011;22140;48.988;8.544;2023-03-01T03:23:14;26.57;;;9.57;;
23565;SDS011;22140;48.988;8.544;2023-03-01T03:28:15;19.83;;;8.43;;
23565;SDS011;22140;48.988;8.544;2023-03-01T03:33:17;19.97;;;8.83;;
23565;SDS011;22140;48.988;8.544;2023-03-01T03:38:18;21.48;;;9.30;;
23565;SDS011;22140;48.988;8.544;2023-03-01T03:43:21;20.15;;;8.52;;
23565;SDS011;22140;48.988;8.544;2023-03-01T03:48:23;24.20;;;9.73;;
23565;SDS011;22140;48.988;8.544;2023-03-01T03:53:26;24.77;;;9.63;;
23565;SDS011;22140;48.988;8.544;2023-03-01T03:58:27;23.17;;;9.50;;
23565;SDS011;22140;48.988;8.544;2023-03-01T04:03:29;21.85;;;9.10;;
23565;SDS011;22140;48.988;8.544;2023-03-01T04:08:30;24.58;;;8.80;;
23565;SDS011;22140;48.988;8.544;2023-03-01T04:13:32;24.63;;;9.00;;
23565;SDS011;22140;48.988;8.544;2023-03-01T04:18:33;24.88;;;9.25;;
23565;SDS011;22140;48.988;8.544;2023-03-01T04:23:34;25.70;;;9.73;;
23565;SDS011;22140;48.988;8.544;2023-03-01T04:28:37;28.27;;;9.98;;
23565;SDS011;22140;48.988;8.544;2023-03-01T04:33:42;24.98;;;9.60;;
23565;SDS011;22140;48.988;8.544;2023-03-01T04:38:44;24.33;;;9.50;;
23565;SDS011;22140;48.988;8.544;2023-03-01T04:43:48;26.05;;;10.02;;
23565;SDS011;22140;48.988;8.544;2023-03-01T04:48:50;24.93;;;10.07;;
23565;SDS011;22140;48.988;8.544;2023-03-01T04:53:51;25.75;;;9.70;;
23565;SDS011;22140;48.988;8.544;2023-03-01T04:58:53;27.25;;;10.27;;
23565;SDS011;22140;48.988;8.544;2023-03-01T05:03:54;27.23;;;10.27;;
23565;SDS011;22140;48.988;8.544;2023-03-01T05:08:56;24.08;;;9.27;;
23565;SDS011;22140;48.988;8.544;2023-03-01T05:13:57;25.37;;;9.90;;
23565;SDS011;22140;48.988;8.544;2023-03-01T05:18:58;24.75;;;9.93;;
23565;SDS011;22140;48.988;8.544;2023-03-01T05:24:00;25.15;;;9.68;;
23565;SDS011;22140;48.988;8.544;2023-03-01T05:29:01;24.70;;;9.70;;
23565;SDS011;22140;48.988;8.544;2023-03-01T05:34:02;23.60;;;9.63;;
23565;SDS011;22140;48.988;8.544;2023-03-01T05:39:04;28.50;;;11.53;;
23565;SDS011;22140;48.988;8.544;2023-03-01T05:44:06;26.10;;;10.30;;
23565;SDS011;22140;48.988;8.544;2023-03-01T05:49:07;25.65;;;10.18;;
23565;SDS011;22140;48.988;8.544;2023-03-01T05:54:09;27.10;;;10.80;;
23565;SDS011;22140;48.988;8.544;2023-03-01T05:59:11;28.70;;;11.32;;
23565;SDS011;22140;48.988;8.544;2023-03-01T06:04:12;23.53;;;9.30;;
23565;SDS011;22140;48.988;8.544;2023-03-01T06:09:13;25.70;;;9.68;;
23565;SDS011;22140;48.988;8.544;2023-03-01T06:14:15;24.77;;;9.60;;
23565;SDS011;22140;48.988;8.544;2023-03-01T06:19:16;23.23;;;9.30;;
23565;SDS011;22140;48.988;8.544;2023-03-01T06:24:18;27.42;;;10.15;;
23565;SDS011;22140;48.988;8.544;2023-03-01T06:29:19;35.63;;;10.47;;
23565;SDS011;22140;48.988;8.544;2023-03-01T06:34:20;23.00;;;9.85;;
23565;SDS011;22140;48.988;8.544;2023-03-01T06:39:22;22.30;;;9.50;;
23565;SDS011;22140;48.988;8.544;2023-03-01T06:44:24;25.37;;;10.77;;
23565;SDS011;22140;48.988;8.544;2023-03-01T06:49:25;24.27;;;10.45;;
23565;SDS011;22140;48.988;8.544;2023-03-01T06:54:26;30.87;;;12.23;;
23565;SDS011;22140;48.988;8.544;2023-03-01T06:59:28;29.63;;;11.52;;
23565;SDS011;22140;48.988;8.544;2023-03-01T07:04:29;28.20;;;10.52;;
23565;SDS011;22140;48.988;8.544;2023-03-01T07:09:31;37.73;;;11.57;;
23565;SDS011;22140;48.988;8.544;2023-03-01T07:14:33;29.30;;;11.18;;
23565;SDS011;22140;48.988;8.544;2023-03-01T07:19:34;26.83;;;9.50;;
23565;SDS011;22140;48.988;8.544;2023-03-01T07:24:35;28.05;;;10.80;;
23565;SDS011;22140;48.988;8.544;2023-03-01T07:29:36;28.50;;;10.25;;
23565;SDS011;22140;48.988;8.544;2023-03-01T07:34:38;33.23;;;11.70;;
23565;SDS011;22140;48.988;8.544;2023-03-01T07:39:39;36.63;;;12.13;;
23565;SDS011;22140;48.988;8.544;2023-03-01T07:44:41;29.13;;;10.90;;
23565;SDS011;22140;48.988;8.544;2023-03-01T07:49:42;29.50;;;10.90;;
23565;SDS011;22140;48.988;8.544;2023-03-01T07:54:44;26.75;;;10.35;;
23565;SDS011;22140;48.988;8.544;2023-03-01T07:59:45;32.07;;;11.67;;
23565;SDS011;22140;48.988;8.544;2023-03-01T08:04:47;23.88;;;10.40;;
23565;SDS011;22140;48.988;8.544;2023-03-01T08:09:48;31.00;;;11.23;;
23565;SDS011;22140;48.988;8.544;2023-03-01T08:14:50;42.83;;;12.48;;
23565;SDS011;22140;48.988;8.544;2023-03-01T08:19:51;31.13;;;11.63;;
23565;SDS011;22140;48.988;8.544;2023-03-01T08:24:52;30.57;;;10.97;;
23565;SDS011;22140;48.988;8.544;2023-03-01T08:29:56;24.42;;;9.95;;
23565;SDS011;22140;48.988;8.544;2023-03-01T08:34:58;29.00;;;10.97;;
23565;SDS011;22140;48.988;8.544;2023-03-01T08:39:59;25.45;;;10.57;;
23565;SDS011;22140;48.988;8.544;2023-03-01T08:45:01;25.88;;;10.35;;
23565;SDS011;22140;48.988;8.544;2023-03-01T08:50:03;24.33;;;10.73;;
23565;SDS011;22140;48.988;8.544;2023-03-01T08:55:05;26.40;;;10.82;;
23565;SDS011;22140;48.988;8.544;2023-03-01T09:00:06;24.63;;;10.00;;
23565;SDS011;22140;48.988;8.544;2023-03-01T09:05:09;30.83;;;11.73;;
23565;SDS011;22140;48.988;8.544;2023-03-01T09:10:11;24.20;;;10.80;;
23565;SDS011;22140;48.988;8.544;2023-03-01T09:15:12;25.63;;;11.30;;
23565;SDS011;22140;48.988;8.544;2023-03-01T09:20:13;23.83;;;11.63;;
23565;SDS011;22140;48.988;8.544;2023-03-01T09:25:15;23.13;;;10.77;;
23565;SDS011;22140;48.988;8.544;2023-03-01T09:30:16;35.22;;;11.65;;
23565;SDS011;22140;48.988;8.544;2023-03-01T09:35:18;24.83;;;11.63;;
23565;SDS011;22140;48.988;8.544;2023-03-01T09:40:21;23.37;;;10.67;;
23565;SDS011;22140;48.988;8.544;2023-03-01T09:45:28;25.52;;;11.70;;
23565;SDS011;22140;48.988;8.544;2023-03-01T09:50:34;22.97;;;11.10;;
23565;SDS011;22140;48.988;8.544;2023-03-01T09:55:40;25.08;;;11.27;;
23565;SDS011;22140;48.988;8.544;2023-03-01T10:00:47;33.67;;;12.07;;
23565;SDS011;22140;48.988;8.544;2023-03-01T10:05:53;29.30;;;11.77;;
23565;SDS011;22140;48.988;8.544;2023-03-01T10:10:55;27.40;;;11.27;;
23565;SDS011;22140;48.988;8.544;2023-03-01T10:16:12;29.20;;;12.07;;
23565;SDS011;22140;48.988;8.544;2023-03-01T10:21:16;23.85;;;10.43;;
23565;SDS011;22140;48.988;8.544;2023-03-01T10:26:43;27.10;;;11.68;;
23565;SDS011;22140;48.988;8.544;2023-03-01T10:31:51;37.80;;;11.80;;
23565;SDS011;22140;48.988;8.544;2023-03-01T10:37:27;27.48;;;11.38;;
23565;SDS011;22140;48.988;8.544;2023-03-01T10:42:30;27.43;;;10.83;;
23565;SDS011;22140;48.988;8.544;2023-03-01T10:47:32;24.95;;;11.00;;
23565;SDS011;22140;48.988;8.544;2023-03-01T10:52:37;26.67;;;11.18;;
23565;SDS011;22140;48.988;8.544;2023-03-01T10:57:39;28.50;;;11.13;;
23565;SDS011;22140;48.988;8.544;2023-03-01T11:02:43;30.55;;;11.20;;
23565;SDS011;22140;48.988;8.544;2023-03-01T11:07:48;29.20;;;11.47;;
23565;SDS011;22140;48.988;8.544;2023-03-01T11:12:53;27.83;;;11.15;;
23565;SDS011;22140;48.988;8.544;2023-03-01T11:17:55;27.50;;;11.25;;
23565;SDS011;22140;48.988;8.544;2023-03-01T11:23:13;25.33;;;11.20;;
23565;SDS011;22140;48.988;8.544;2023-03-01T11:28:16;26.00;;;11.38;;
23565;SDS011;22140;48.988;8.544;2023-03-01T11:38:26;27.48;;;11.00;;
23565;SDS011;22140;48.988;8.544;2023-03-01T11:53:56;25.85;;;11.40;;
23565;SDS011;22140;48.988;8.544;2023-03-01T12:14:30;33.13;;;9.80;;
23565;SDS011;22140;48.988;8.544;2023-03-01T12:45:48;27.95;;;11.43;;
23565;SDS011;22140;48.988;8.544;2023-03-01T12:50:52;27.57;;;11.57;;
23565;SDS011;22140;48.988;8.544;2023-03-01T12:55:55;27.17;;;11.50;;
23565;SDS011;22140;48.988;8.544;2023-03-01T13:01:05;26.85;;;10.63;;
23565;SDS011;22140;48.988;8.544;2023-03-01T13:06:20;32.20;;;11.40;;
23565;SDS011;22140;48.988;8.544;2023-03-01T13:11:25;40.00;;;12.40;;
23565;SDS011;22140;48.988;8.544;2023-03-01T13:21:32;25.50;;;11.27;;
23565;SDS011;22140;48.988;8.544;2023-03-01T13:26:38;35.80;;;12.52;;
23565;SDS011;22140;48.988;8.544;2023-03-01T13:31:55;25.10;;;11.13;;
23565;SDS011;22140;48.988;8.544;2023-03-01T13:37:08;27.17;;;11.63;;
23565;SDS011;22140;48.988;8.544;2023-03-01T13:48:08;26.73;;;10.88;;
23565;SDS011;22140;48.988;8.544;2023-03-01T13:53:11;31.65;;;11.02;;
23565;SDS011;22140;48.988;8.544;2023-03-01T13:58:21;27.37;;;11.33;;
23565;SDS011;22140;48.988;8.544;2023-03-01T14:03:24;34.35;;;11.80;;
23565;SDS011;22140;48.988;8.544;2023-03-01T14:08:26;24.63;;;11.53;;
23565;SDS011;22140;48.988;8.544;2023-03-01T14:13:34;25.30;;;10.73;;
23565;SDS011;22140;48.988;8.544;2023-03-01T14:18:53;24.75;;;10.95;;
23565;SDS011;22140;48.988;8.544;2023-03-01T14:23:56;26.57;;;11.10;;
23565;SDS011;22140;48.988;8.544;2023-03-01T14:28:58;24.60;;;10.40;;
23565;SDS011;22140;48.988;8.544;2023-03-01T14:34:00;24.33;;;10.50;;
23565;SDS011;22140;48.988;8.544;2023-03-01T14:39:02;64.07;;;13.73;;
23565;SDS011;22140;48.988;8.544;2023-03-01T14:44:19;40.03;;;11.73;;
23565;SDS011;22140;48.988;8.544;2023-03-01T14:49:24;24.57;;;11.33;;
23565;SDS011;22140;48.988;8.544;2023-03-01T14:54:27;23.35;;;10.77;;
23565;SDS011;22140;48.988;8.544;2023-03-01T14:59:32;25.90;;;10.60;;
23565;SDS011;22140;48.988;8.544;2023-03-01T15:04:34;37.28;;;11.90;;
23565;SDS011;22140;48.988;8.544;2023-03-01T15:09:35;30.73;;;10.20;;
23565;SDS011;22140;48.988;8.544;2023-03-01T15:14:39;30.33;;;9.93;;
23565;SDS011;22140;48.988;8.544;2023-03-01T15:19:46;29.30;;;11.43;;
23565;SDS011;22140;48.988;8.544;2023-03-01T15:24:48;26.57;;;10.33;;
23565;SDS011;22140;48.988;8.544;2023-03-01T15:29:57;23.92;;;10.60;;
23565;SDS011;22140;48.988;8.544;2023-03-01T15:35:01;29.00;;;11.00;;
23565;SDS011;22140;48.988;8.544;2023-03-01T15:40:02;26.43;;;10.80;;
23565;SDS011;22140;48.988;8.544;2023-03-01T15:45:20;22.70;;;10.10;;
23565;SDS011;22140;48.988;8.544;2023-03-01T15:50:23;24.27;;;10.23;;
23565;SDS011;22140;48.988;8.544;2023-03-01T15:55:26;22.77;;;11.23;;
23565;SDS011;22140;48.988;8.544;2023-03-01T16:00:31;31.98;;;11.07;;
23565;SDS011;22140;48.988;8.544;2023-03-01T16:05:33;23.67;;;10.40;;
23565;SDS011;22140;48.988;8.544;2023-03-01T16:10:35;25.52;;;11.18;;
23565;SDS011;22140;48.988;8.544;2023-03-01T16:15:37;24.13;;;9.83;;
23565;SDS011;22140;48.988;8.544;2023-03-01T16:20:39;21.00;;;9.57;;
23565;SDS011;22140;48.988;8.544;2023-03-01T16:25:41;27.55;;;10.63;;
23565;SDS011;22140;48.988;8.544;2023-03-01T16:30:45;24.50;;;10.07;;
23565;SDS011;22140;48.988;8.544;2023-03-01T16:35:47;24.38;;;9.55;;
23565;SDS011;22140;48.988;8.544;2023-03-01T16:40:49;24.13;;;10.00;;
23565;SDS011;22140;48.988;8.544;2023-03-01T16:45:50;23.88;;;10.07;;
23565;SDS011;22140;48.988;8.544;2023-03-01T16:50:59;25.02;;;9.70;;
23565;SDS011;22140;48.988;8.544;2023-03-01T16:56:02;24.23;;;10.70;;
23565;SDS011;22140;48.988;8.544;2023-03-01T17:01:04;29.23;;;11.70;;
23565;SDS011;22140;48.988;8.544;2023-03-01T17:06:08;25.23;;;11.67;;
23565;SDS011;22140;48.988;8.544;2023-03-01T17:11:11;25.77;;;11.02;;
23565;SDS011;22140;48.988;8.544;2023-03-01T17:16:14;26.27;;;10.77;;
23565;SDS011;22140;48.988;8.544;2023-03-01T17:21:17;24.37;;;9.90;;
23565;SDS011;22140;48.988;8.544;2023-03-01T17:26:18;25.42;;;10.65;;
23565;SDS011;22140;48.988;8.544;2023-03-01T17:31:20;27.43;;;11.93;;
23565;SDS011;22140;48.988;8.544;2023-03-01T17:36:21;25.77;;;11.23;;
23565;SDS011;22140;48.988;8.544;2023-03-01T17:41:23;26.10;;;11.75;;
23565;SDS011;22140;48.988;8.544;2023-03-01T17:46:25;28.23;;;11.93;;
23565;SDS011;22140;48.988;8.544;2023-03-01T17:51:27;30.52;;;12.40;;
23565;SDS011;22140;48.988;8.544;2023-03-01T17:56:28;32.77;;;11.43;;
23565;SDS011;22140;48.988;8.544;2023-03-01T18:01:29;30.60;;;11.93;;
23565;SDS011;22140;48.988;8.544;2023-03-01T18:06:31;34.50;;;12.50;;
23565;SDS011;22140;48.988;8.544;2023-03-01T18:11:33;26.90;;;11.20;;
23565;SDS011;22140;48.988;8.544;2023-03-01T18:16:35;37.72;;;12.88;;
23565;SDS011;22140;48.988;8.544;2023-03-01T18:21:39;37.57;;;14.80;;
23565;SDS011;22140;48.988;8.544;2023-03-01T18:26:40;31.55;;;13.90;;
23565;SDS011;22140;48.988;8.544;2023-03-01T18:31:42;34.55;;;13.15;;
23565;SDS011;22140;48.988;8.544;2023-03-01T18:36:43;35.40;;;12.87;;
23565;SDS011;22140;48.988;8.544;2023-03-01T18:42:05;35.88;;;13.95;;
23565;SDS011;22140;48.988;8.544;2023-03-01T18:47:06;38.47;;;13.93;;
23565;SDS011;22140;48.988;8.544;2023-03-01T18:52:07;42.70;;;15.02;;
23565;SDS011;22140;48.988;8.544;2023-03-01T18:57:09;36.33;;;13.25;;
23565;SDS011;22140;48.988;8.544;2023-03-01T19:02:10;29.67;;;12.97;;
23565;SDS011;22140;48.988;8.544;2023-03-01T19:07:12;29.50;;;11.10;;
23565;SDS011;22140;48.988;8.544;2023-03-01T19:12:13;24.67;;;9.83;;
23565;SDS011;22140;48.988;8.544;2023-03-01T19:17:14;27.42;;;11.63;;
23565;SDS011;22140;48.988;8.544;2023-03-01T19:22:16;33.40;;;13.70;;
23565;SDS011;22140;48.988;8.544;2023-03-01T19:27:17;35.07;;;14.53;;
23565;SDS011;22140;48.988;8.544;2023-03-01T19:32:18;35.17;;;14.02;;
23565;SDS011;22140;48.988;8.544;2023-03-01T19:37:20;41.10;;;14.93;;
23565;SDS011;22140;48.988;8.544;2023-03-01T19:42:23;44.42;;;17.17;;
23565;SDS011;22140;48.988;8.544;2023-03-01T19:47:28;36.30;;;14.02;;
23565;SDS011;22140;48.988;8.544;2023-03-01T19:52:29;47.20;;;20.67;;
23565;SDS011;22140;48.988;8.544;2023-03-01T19:57:30;37.80;;;16.00;;
23565;SDS011;22140;48.988;8.544;2023-03-01T20:02:32;45.53;;;17.93;;
23565;SDS011;22140;48.988;8.544;2023-03-01T20:07:33;52.72;;;19.77;;
23565;SDS011;22140;48.988;8.544;2023-03-01T20:12:35;50.17;;;19.23;;
23565;SDS011;22140;48.988;8.544;2023-03-01T20:17:37;49.53;;;20.10;;
23565;SDS011;22140;48.988;8.544;2023-03-01T20:22:38;46.17;;;20.02;;
23565;SDS011;22140;48.988;8.544;2023-03-01T20:27:52;46.57;;;19.27;;
23565;SDS011;22140;48.988;8.544;2023-03-01T20:32:53;44.38;;;17.33;;
23565;SDS011;22140;48.988;8.544;2023-03-01T20:37:54;43.47;;;18.27;;
23565;SDS011;22140;48.988;8.544;2023-03-01T20:42:58;49.30;;;19.70;;
23565;SDS011;22140;48.988;8.544;2023-03-01T20:48:00;44.42;;;17.88;;
23565;SDS011;22140;48.988;8.544;2023-03-01T20:53:01;46.00;;;17.40;;
23565;SDS011;22140;48.988;8.544;2023-03-01T20:58:02;42.15;;;17.02;;
23565;SDS011;22140;48.988;8.544;2023-03-01T21:03:04;44.35;;;17.77;;
23565;SDS011;22140;48.988;8.544;2023-03-01T21:08:08;43.97;;;17.90;;
23565;SDS011;22140;48.988;8.544;2023-03-01T21:13:09;47.38;;;19.45;;
23565;SDS011;22140;48.988;8.544;2023-03-01T21:18:11;65.73;;;22.03;;
23565;SDS011;22140;48.988;8.544;2023-03-01T21:23:12;55.35;;;22.48;;
23565;SDS011;22140;48.988;8.544;2023-03-01T21:28:14;49.17;;;19.67;;
23565;SDS011;22140;48.988;8.544;2023-03-01T21:33:15;46.60;;;17.97;;
23565;SDS011;22140;48.988;8.544;2023-03-01T21:38:16;46.70;;;17.30;;
23565;SDS011;22140;48.988;8.544;2023-03-01T21:43:17;29.73;;;11.80;;
23565;SDS011;22140;48.988;8.544;2023-03-01T21:48:19;29.80;;;11.13;;
23565;SDS011;22140;48.988;8.544;2023-03-01T21:53:20;30.08;;;11.55;;
23565;SDS011;22140;48.988;8.544;2023-03-01T21:58:21;33.37;;;12.67;;
23565;SDS011;22140;48.988;8.544;2023-03-01T22:03:24;32.42;;;13.40;;
23565;SDS011;22140;48.988;8.544;2023-03-01T22:08:25;37.80;;;15.63;;
23565;SDS011;22140;48.988;8.544;2023-03-01T22:13:27;37.35;;;15.75;;
23565;SDS011;22140;48.988;8.544;2023-03-01T22:18:28;39.85;;;16.15;;
23565;SDS011;22140;48.988;8.544;2023-03-01T22:23:30;43.70;;;17.20;;
23565;SDS011;22140;48.988;8.544;2023-03-01T22:28:34;44.90;;;18.75;;
23565;SDS011;22140;48.988;8.544;2023-03-01T22:33:35;40.90;;;17.03;;
23565;SDS011;22140;48.988;8.544;2023-03-01T22:38:37;39.50;;;17.40;;
23565;SDS011;22140;48.988;8.544;2023-03-01T22:43:42;46.13;;;17.77;;
23565;SDS011;22140;48.988;8.544;2023-03-01T22:48:44;48.83;;;18.23;;
23565;SDS011;22140;48.988;8.544;2023-03-01T22:53:47;41.75;;;17.00;;
23565;SDS011;22140;48.988;8.544;2023-03-01T22:58:49;43.83;;;16.40;;
23565;SDS011;22140;48.988;8.544;2023-03-01T23:03:50;40.30;;;17.13;;
23565;SDS011;22140;48.988;8.544;2023-03-01T23:08:53;39.85;;;15.45;;
23565;SDS011;22140;48.988;8.544;2023-03-01T23:13:55;40.57;;;17.13;;
23565;SDS011;22140;48.988;8.544;2023-03-01T23:18:56;35.67;;;14.95;;
23565;SDS011;22140;48.988;8.544;2023-03-01T23:24:00;45.27;;;17.67;;
23565;SDS011;22140;48.988;8.544;2023-03-01T23:29:04;42.17;;;16.00;;
23565;SDS011;22140;48.988;8.544;2023-03-01T23:34:05;40.05;;;16.38;;
23565;SDS011;22140;48.988;8.544;2023-03-01T23:39:06;40.90;;;16.07;;
23565;SDS011;22140;48.988;8.544;2023-03-01T23:44:10;42.22;;;16.35;;
23565;SDS011;22140;48.988;8.544;2023-03-01T23:49:13;41.70;;;16.53;;
23565;SDS011;22140;48.988;8.544;2023-03-01T23:54:16;44.13;;;16.60;;
23565;SDS011;22140;48.988;8.544;2023-03-01T23:59:19;47.42;;;15.95;;
